Time;durP1;ratioP1;P1;durP2;ratioP2;P2;SDS_P1;SDS_P2;PMS_P1;PMS_P2;Temp;Humidity;BMP_temperature;BMP_pressure;BME280_temperature;BME280_humidity;BME280_pressure;Samples;Min_cycle;Max_cycle;Signal;HPM_P1;HPM_P2
2023/11/30 00:01:33;;;;;;;10.97;5.10;;;;;;;;;;5023325;28;20120;-61
2023/11/30 00:03:59;;;;;;;12.57;5.80;;;;;;;;;;5025544;28;20030;-61
2023/11/30 00:06:24;;;;;;;10.80;5.33;;;;;;;;;;5030150;28;20432;-61
2023/11/30 00:08:49;;;;;;;10.27;5.45;;;;;;;;;;5027599;28;20030;-61
2023/11/30 00:11:14;;;;;;;10.68;4.93;;;;;;;;;;5026620;28;20032;-61
2023/11/30 00:13:39;;;;;;;11.18;5.32;;;;;;;;;;5023242;28;20028;-61
2023/11/30 00:16:05;;;;;;;10.95;5.00;;;;;;;;;;5030012;28;20029;-60
2023/11/30 00:18:30;;;;;;;10.65;5.18;;;;;;;;;;5019622;28;20030;-60
2023/11/30 00:20:55;;;;;;;11.00;5.10;;;;;;;;;;5021062;28;20028;-61
2023/11/30 00:23:20;;;;;;;11.93;5.53;;;;;;;;;;5027778;28;20061;-59
2023/11/30 00:25:45;;;;;;;11.98;5.30;;;;;;;;;;5030645;28;20025;-60
2023/11/30 00:28:11;;;;;;;10.25;5.10;;;;;;;;;;5018828;28;20507;-61
2023/11/30 00:30:36;;;;;;;11.10;5.40;;;;;;;;;;5029676;28;20079;-59
2023/11/30 00:33:01;;;;;;;10.70;5.20;;;;;;;;;;5024017;28;20033;-61
2023/11/30 00:35:26;;;;;;;10.97;5.23;;;;;;;;;;5030369;28;20689;-61
2023/11/30 00:37:51;;;;;;;13.33;6.40;;;;;;;;;;5023652;28;20014;-60
2023/11/30 00:40:16;;;;;;;14.20;5.75;;;;;;;;;;5031133;28;20030;-62
2023/11/30 00:42:41;;;;;;;10.93;5.40;;;;;;;;;;5028880;28;20021;-62
2023/11/30 00:45:07;;;;;;;13.68;6.07;;;;;;;;;;5025189;28;20038;-61
2023/11/30 00:47:32;;;;;;;15.98;6.32;;;;;;;;;;5024261;28;20517;-62
2023/11/30 00:49:57;;;;;;;13.40;5.95;;;;;;;;;;5027313;28;20017;-61
2023/11/30 00:52:22;;;;;;;12.30;5.60;;;;;;;;;;5018211;28;20041;-61
2023/11/30 00:54:47;;;;;;;13.05;5.80;;;;;;;;;;5025652;28;20554;-61
2023/11/30 00:57:13;;;;;;;12.38;5.88;;;;;;;;;;5021533;28;20044;-61
2023/11/30 00:59:38;;;;;;;12.63;5.72;;;;;;;;;;5015547;28;20026;-62
2023/11/30 01:02:03;;;;;;;12.93;5.53;;;;;;;;;;5025992;28;20125;-61
2023/11/30 01:04:28;;;;;;;11.40;5.83;;;;;;;;;;5024803;28;20034;-61
2023/11/30 01:06:53;;;;;;;11.30;5.30;;;;;;;;;;5027777;28;20033;-61
2023/11/30 01:09:20;;;;;;;12.90;5.55;;;;;;;;;;5029521;28;20100;-62
2023/11/30 01:11:45;;;;;;;13.45;6.13;;;;;;;;;;5030231;28;20032;-62
2023/11/30 01:14:10;;;;;;;11.25;5.88;;;;;;;;;;5032884;28;20480;-63
2023/11/30 01:16:35;;;;;;;11.02;5.43;;;;;;;;;;5025720;28;20030;-62
2023/11/30 01:19:00;;;;;;;12.27;5.38;;;;;;;;;;5023947;28;20048;-62
2023/11/30 01:21:26;;;;;;;11.27;5.93;;;;;;;;;;5027306;28;20026;-61
2023/11/30 01:23:51;;;;;;;12.70;5.90;;;;;;;;;;5037348;28;20010;-62
2023/11/30 01:26:16;;;;;;;14.15;6.22;;;;;;;;;;5026413;28;20041;-61
2023/11/30 01:28:41;;;;;;;11.55;5.38;;;;;;;;;;5019763;28;20095;-61
2023/11/30 01:31:06;;;;;;;12.40;5.40;;;;;;;;;;5027354;28;20040;-61
2023/11/30 01:33:32;;;;;;;13.68;6.07;;;;;;;;;;5028057;28;20116;-62
2023/11/30 01:35:57;;;;;;;11.68;5.60;;;;;;;;;;5029421;28;20473;-61
2023/11/30 01:38:22;;;;;;;10.23;5.23;;;;;;;;;;5023601;28;20053;-61
2023/11/30 01:40:47;;;;;;;12.77;5.38;;;;;;;;;;5021385;28;20025;-61
2023/11/30 01:43:15;;;;;;;7.23;3.30;;;;;;;;;;5028408;28;20449;-62
2023/11/30 01:45:40;;;;;;;7.95;3.13;;;;;;;;;;5025876;28;20452;-61
2023/11/30 01:48:05;;;;;;;7.40;3.17;;;;;;;;;;5023781;28;20462;-61
2023/11/30 01:50:31;;;;;;;8.70;3.70;;;;;;;;;;5022664;28;20062;-62
2023/11/30 01:52:56;;;;;;;9.40;4.27;;;;;;;;;;5018089;28;20025;-61
2023/11/30 01:55:21;;;;;;;8.73;4.23;;;;;;;;;;5027783;28;20025;-62
2023/11/30 01:57:46;;;;;;;9.50;4.10;;;;;;;;;;5024374;28;20425;-62
2023/11/30 02:00:12;;;;;;;10.70;4.03;;;;;;;;;;5020795;28;20030;-62
2023/11/30 02:02:37;;;;;;;8.60;3.92;;;;;;;;;;5026476;28;20033;-61
2023/11/30 02:05:03;;;;;;;9.15;4.05;;;;;;;;;;5028146;28;20112;-62
2023/11/30 02:07:28;;;;;;;8.50;3.78;;;;;;;;;;5018580;28;20041;-61
2023/11/30 02:09:53;;;;;;;10.20;4.65;;;;;;;;;;5018723;28;20041;-61
2023/11/30 02:12:19;;;;;;;11.82;5.18;;;;;;;;;;5018968;28;20038;-62
2023/11/30 02:14:44;;;;;;;12.30;5.15;;;;;;;;;;5026787;28;20039;-62
2023/11/30 02:17:09;;;;;;;10.60;5.22;;;;;;;;;;5027283;28;20034;-62
2023/11/30 02:19:34;;;;;;;15.50;6.53;;;;;;;;;;5025508;28;20112;-62
2023/11/30 02:21:59;;;;;;;10.93;5.67;;;;;;;;;;5022145;28;20025;-62
2023/11/30 02:24:25;;;;;;;12.50;5.35;;;;;;;;;;5026403;28;20504;-62
2023/11/30 02:26:50;;;;;;;14.50;7.00;;;;;;;;;;5020559;28;20046;-61
2023/11/30 02:29:16;;;;;;;13.23;6.53;;;;;;;;;;5029307;28;20022;-61
2023/11/30 02:31:42;;;;;;;15.70;6.93;;;;;;;;;;5024273;28;20050;-61
2023/11/30 02:34:07;;;;;;;11.98;6.20;;;;;;;;;;5026830;28;20022;-61
2023/11/30 02:36:32;;;;;;;13.37;6.17;;;;;;;;;;5020360;28;20480;-61
2023/11/30 02:38:57;;;;;;;14.95;7.20;;;;;;;;;;5017785;28;20022;-61
2023/11/30 02:41:22;;;;;;;12.83;6.30;;;;;;;;;;5016831;28;20068;-62
2023/11/30 02:43:47;;;;;;;14.32;6.88;;;;;;;;;;5027521;28;20021;-61
2023/11/30 02:46:13;;;;;;;15.63;7.27;;;;;;;;;;5027305;28;20681;-61
2023/11/30 02:48:38;;;;;;;12.40;5.97;;;;;;;;;;5026885;28;20091;-61
2023/11/30 02:51:03;;;;;;;14.53;5.90;;;;;;;;;;5020493;28;20022;-61
2023/11/30 02:53:28;;;;;;;12.63;5.73;;;;;;;;;;5027389;28;20021;-62
2023/11/30 02:55:53;;;;;;;12.75;6.30;;;;;;;;;;5023858;28;20037;-61
2023/11/30 02:58:19;;;;;;;13.90;5.78;;;;;;;;;;5027709;28;20018;-61
2023/11/30 03:00:46;;;;;;;11.98;5.75;;;;;;;;;;5027584;28;20063;-62
2023/11/30 03:03:11;;;;;;;;;;;;;;;;;;5025169;28;20048;-62
2023/11/30 03:05:36;;;;;;;13.85;6.22;;;;;;;;;;5020535;28;20008;-61
2023/11/30 03:08:01;;;;;;;15.43;7.17;;;;;;;;;;5026555;28;20087;-62
2023/11/30 03:10:26;;;;;;;11.98;6.00;;;;;;;;;;5022446;28;20029;-62
2023/11/30 03:12:51;;;;;;;13.85;6.53;;;;;;;;;;5023552;28;20036;-61
2023/11/30 03:15:18;;;;;;;15.98;7.68;;;;;;;;;;5026288;28;20033;-62
2023/11/30 03:17:43;;;;;;;15.35;7.03;;;;;;;;;;5031690;28;20106;-62
2023/11/30 03:20:09;;;;;;;14.53;7.13;;;;;;;;;;5029952;28;20110;-62
2023/11/30 03:22:34;;;;;;;15.27;7.55;;;;;;;;;;5032204;28;20100;-62
2023/11/30 03:24:59;;;;;;;14.55;6.80;;;;;;;;;;5027737;28;20017;-62
2023/11/30 03:27:24;;;;;;;10.00;4.40;;;;;;;;;;5032603;28;20045;-62
2023/11/30 03:29:49;;;;;;;8.80;4.20;;;;;;;;;;5025835;28;20436;-62
2023/11/30 03:32:14;;;;;;;8.07;3.65;;;;;;;;;;5028792;28;20026;-62
2023/11/30 03:34:39;;;;;;;9.55;4.20;;;;;;;;;;5035510;28;20025;-62
2023/11/30 03:37:05;;;;;;;10.63;5.00;;;;;;;;;;5035062;28;20437;-62
2023/11/30 03:39:30;;;;;;;10.80;4.57;;;;;;;;;;5036540;28;20038;-63
2023/11/30 03:41:55;;;;;;;10.35;4.95;;;;;;;;;;5032471;28;20062;-63
2023/11/30 03:44:20;;;;;;;11.77;4.38;;;;;;;;;;5045693;28;20383;-62
2023/11/30 03:46:45;;;;;;;9.98;4.47;;;;;;;;;;5035736;28;20061;-62
2023/11/30 03:49:10;;;;;;;11.63;4.82;;;;;;;;;;5026864;28;20033;-63
2023/11/30 03:51:36;;;;;;;12.90;5.03;;;;;;;;;;5024110;28;20389;-62
2023/11/30 03:54:01;;;;;;;12.13;5.00;;;;;;;;;;5030166;28;20048;-63
2023/11/30 03:56:30;;;;;;;10.37;5.00;;;;;;;;;;5023037;28;20026;-62
2023/11/30 03:58:55;;;;;;;11.82;4.93;;;;;;;;;;5026676;28;20910;-63
2023/11/30 04:01:21;;;;;;;11.63;4.85;;;;;;;;;;5030813;28;20037;-62
2023/11/30 04:03:46;;;;;;;11.45;4.93;;;;;;;;;;5024744;28;20078;-63
2023/11/30 04:06:17;;;;;;;9.07;4.65;;;;;;;;;;5026668;28;20029;-62
2023/11/30 04:08:42;;;;;;;12.65;5.88;;;;;;;;;;5029220;28;20022;-63
2023/11/30 04:11:07;;;;;;;11.10;5.22;;;;;;;;;;5028669;28;20034;-63
2023/11/30 04:13:32;;;;;;;12.75;5.43;;;;;;;;;;5025727;28;20495;-62
2023/11/30 04:15:57;;;;;;;13.32;6.45;;;;;;;;;;5026439;28;20049;-62
2023/11/30 04:18:22;;;;;;;13.02;5.60;;;;;;;;;;5025032;28;20040;-62
2023/11/30 04:20:48;;;;;;;12.90;6.03;;;;;;;;;;5026663;28;20559;-63
2023/11/30 04:23:13;;;;;;;14.03;6.73;;;;;;;;;;5031024;28;20064;-62
2023/11/30 04:25:38;;;;;;;13.60;6.13;;;;;;;;;;5031033;28;20108;-63
2023/11/30 04:28:03;;;;;;;13.75;6.05;;;;;;;;;;5030805;28;20061;-62
2023/11/30 04:30:28;;;;;;;15.03;6.53;;;;;;;;;;5030308;28;20026;-63
2023/11/30 04:32:53;;;;;;;12.57;5.72;;;;;;;;;;5026372;28;20117;-62
2023/11/30 04:35:18;;;;;;;13.60;6.32;;;;;;;;;;5029251;28;20029;-63
2023/11/30 04:37:44;;;;;;;13.18;5.95;;;;;;;;;;5029494;28;20025;-62
2023/11/30 04:40:09;;;;;;;11.13;5.50;;;;;;;;;;5030135;28;20048;-62
2023/11/30 04:42:34;;;;;;;14.20;6.45;;;;;;;;;;5029766;28;20025;-62
2023/11/30 04:44:59;;;;;;;13.82;6.10;;;;;;;;;;5029039;28;20026;-63
2023/11/30 04:47:25;;;;;;;14.27;5.88;;;;;;;;;;5028381;28;20575;-62
2023/11/30 04:49:50;;;;;;;12.15;5.82;;;;;;;;;;5027334;28;20014;-62
2023/11/30 04:52:16;;;;;;;13.00;5.47;;;;;;;;;;5019162;28;20033;-62
2023/11/30 04:54:41;;;;;;;13.55;6.40;;;;;;;;;;5022014;28;20048;-62
2023/11/30 04:57:06;;;;;;;14.03;6.00;;;;;;;;;;5020716;28;20029;-62
2023/11/30 04:59:31;;;;;;;14.53;6.20;;;;;;;;;;5029011;28;20022;-62
2023/11/30 05:01:57;;;;;;;15.60;6.30;;;;;;;;;;5022427;28;20491;-62
2023/11/30 05:04:22;;;;;;;14.73;6.63;;;;;;;;;;5027436;28;20405;-61
2023/11/30 05:06:47;;;;;;;13.43;6.50;;;;;;;;;;5029096;28;20483;-62
2023/11/30 05:09:12;;;;;;;12.43;6.00;;;;;;;;;;5028139;28;20425;-62
2023/11/30 05:11:37;;;;;;;12.70;6.47;;;;;;;;;;5023766;28;20029;-62
2023/11/30 05:14:02;;;;;;;15.17;6.87;;;;;;;;;;5027456;28;20052;-62
2023/11/30 05:16:27;;;;;;;14.30;6.60;;;;;;;;;;5022974;28;20493;-62
2023/11/30 05:18:53;;;;;;;16.50;6.70;;;;;;;;;;5025110;28;20035;-62
2023/11/30 05:21:18;;;;;;;19.50;8.10;;;;;;;;;;5024300;28;20037;-62
2023/11/30 05:23:43;;;;;;;22.58;7.70;;;;;;;;;;5029621;28;20105;-63
2023/11/30 05:26:08;;;;;;;19.45;8.45;;;;;;;;;;5029013;28;20026;-62
2023/11/30 05:28:33;;;;;;;16.20;7.13;;;;;;;;;;5023367;28;20041;-63
2023/11/30 05:30:59;;;;;;;20.10;8.07;;;;;;;;;;5022536;28;20100;-62
2023/11/30 05:33:26;;;;;;;21.92;8.48;;;;;;;;;;5018758;28;20021;-63
2023/11/30 05:35:51;;;;;;;21.50;8.45;;;;;;;;;;5021937;28;20074;-63
2023/11/30 05:38:17;;;;;;;24.05;8.73;;;;;;;;;;5021316;28;20041;-62
2023/11/30 05:40:42;;;;;;;25.75;8.55;;;;;;;;;;5025850;28;20062;-62
2023/11/30 05:43:07;;;;;;;17.97;7.93;;;;;;;;;;5018334;28;20072;-62
2023/11/30 05:45:32;;;;;;;14.73;7.37;;;;;;;;;;5022095;28;20021;-62
2023/11/30 05:47:58;;;;;;;21.25;7.25;;;;;;;;;;5015314;28;20412;-63
2023/11/30 05:50:23;;;;;;;16.88;7.63;;;;;;;;;;5017425;28;20406;-62
2023/11/30 05:52:48;;;;;;;17.60;7.90;;;;;;;;;;5024001;28;20028;-62
2023/11/30 05:55:14;;;;;;;19.35;8.60;;;;;;;;;;5020033;28;20041;-62
2023/11/30 05:57:39;;;;;;;20.77;9.05;;;;;;;;;;5020543;28;21043;-62
2023/11/30 06:00:05;;;;;;;20.53;8.87;;;;;;;;;;5016161;28;20121;-63
2023/11/30 06:02:31;;;;;;;20.42;9.48;;;;;;;;;;5019330;28;20033;-62
2023/11/30 06:04:57;;;;;;;16.23;7.78;;;;;;;;;;5018913;28;20385;-62
2023/11/30 06:07:23;;;;;;;18.77;8.50;;;;;;;;;;5020145;28;20048;-63
2023/11/30 06:09:48;;;;;;;24.25;9.25;;;;;;;;;;5020257;28;20514;-63
2023/11/30 06:12:13;;;;;;;17.77;8.00;;;;;;;;;;5022131;28;20034;-62
2023/11/30 06:14:38;;;;;;;20.25;9.02;;;;;;;;;;5027590;28;20102;-63
2023/11/30 06:17:04;;;;;;;16.57;7.93;;;;;;;;;;5019525;28;20026;-62
2023/11/30 06:19:29;;;;;;;20.57;9.40;;;;;;;;;;5021541;28;20031;-62
2023/11/30 06:21:54;;;;;;;19.93;9.17;;;;;;;;;;5024986;28;20460;-62
2023/11/30 06:24:19;;;;;;;22.10;9.13;;;;;;;;;;5028470;28;20017;-62
2023/11/30 06:26:44;;;;;;;22.40;8.53;;;;;;;;;;5020643;28;20114;-62
2023/11/30 06:29:13;;;;;;;24.77;9.70;;;;;;;;;;5025114;28;20026;-62
2023/11/30 06:31:38;;;;;;;21.48;8.95;;;;;;;;;;5028690;28;20026;-62
2023/11/30 06:34:03;;;;;;;19.03;8.70;;;;;;;;;;5019104;28;20121;-62
2023/11/30 06:36:29;;;;;;;21.02;7.75;;;;;;;;;;5021130;28;20579;-62
2023/11/30 06:38:54;;;;;;;20.43;8.67;;;;;;;;;;5030075;28;20477;-62
2023/11/30 06:41:19;;;;;;;19.60;8.55;;;;;;;;;;5020844;28;20022;-62
2023/11/30 06:43:44;;;;;;;23.27;9.10;;;;;;;;;;5024615;28;20100;-63
2023/11/30 06:46:17;;;;;;;23.20;9.23;;;;;;;;;;5026142;28;20029;-61
2023/11/30 06:48:43;;;;;;;26.77;10.13;;;;;;;;;;5027323;28;20129;-62
2023/11/30 06:51:08;;;;;;;21.83;9.00;;;;;;;;;;5032689;28;20100;-61
2023/11/30 06:53:33;;;;;;;23.70;8.90;;;;;;;;;;5033270;28;20040;-62
2023/11/30 06:55:58;;;;;;;22.63;9.20;;;;;;;;;;5028660;28;20481;-61
2023/11/30 06:58:23;;;;;;;27.15;10.65;;;;;;;;;;5024893;28;20053;-62
2023/11/30 07:00:49;;;;;;;28.10;10.30;;;;;;;;;;5028215;28;20025;-61
2023/11/30 07:03:14;;;;;;;26.10;9.90;;;;;;;;;;5031237;28;20486;-63
2023/11/30 07:05:40;;;;;;;28.13;10.80;;;;;;;;;;5030578;28;20087;-63
2023/11/30 07:08:05;;;;;;;23.93;9.77;;;;;;;;;;5022448;28;20045;-63
2023/11/30 07:10:30;;;;;;;22.92;10.00;;;;;;;;;;5025533;28;20029;-63
2023/11/30 07:12:55;;;;;;;22.63;9.00;;;;;;;;;;5019888;28;20025;-63
2023/11/30 07:15:20;;;;;;;23.60;9.35;;;;;;;;;;5027072;28;20558;-62
2023/11/30 07:17:45;;;;;;;21.17;8.95;;;;;;;;;;5028100;28;20079;-62
2023/11/30 07:20:11;;;;;;;19.73;8.60;;;;;;;;;;5016766;28;20025;-63
2023/11/30 07:22:36;;;;;;;21.33;9.02;;;;;;;;;;5022246;28;20072;-62
2023/11/30 07:25:02;;;;;;;22.02;9.20;;;;;;;;;;5019407;28;20087;-63
2023/11/30 07:27:28;;;;;;;20.73;9.38;;;;;;;;;;5023884;28;20084;-62
2023/11/30 07:29:53;;;;;;;22.85;10.10;;;;;;;;;;5022843;28;20056;-62
2023/11/30 07:32:18;;;;;;;26.08;10.15;;;;;;;;;;5018496;28;20778;-62
2023/11/30 07:34:44;;;;;;;24.70;9.95;;;;;;;;;;5017340;28;20034;-62
2023/11/30 07:37:09;;;;;;;24.00;9.73;;;;;;;;;;5020867;28;20113;-62
2023/11/30 07:39:34;;;;;;;23.00;10.47;;;;;;;;;;5024206;28;20622;-62
2023/11/30 07:42:00;;;;;;;24.50;10.13;;;;;;;;;;5028343;28;20452;-62
2023/11/30 07:44:27;;;;;;;21.40;9.27;;;;;;;;;;5024260;28;20032;-62
2023/11/30 07:46:52;;;;;;;27.33;11.02;;;;;;;;;;5020848;28;20510;-62
2023/11/30 07:49:17;;;;;;;26.57;10.10;;;;;;;;;;5024521;28;20044;-63
2023/11/30 07:51:42;;;;;;;25.38;10.30;;;;;;;;;;5016808;28;20135;-62
2023/11/30 07:54:08;;;;;;;24.25;10.57;;;;;;;;;;5019402;28;20447;-62
2023/11/30 07:56:33;;;;;;;29.42;11.10;;;;;;;;;;5028990;28;20037;-62
2023/11/30 07:58:58;;;;;;;27.75;10.38;;;;;;;;;;5030596;28;20029;-62
2023/11/30 08:01:23;;;;;;;28.02;10.45;;;;;;;;;;5026946;28;20041;-62
2023/11/30 08:03:48;;;;;;;26.63;10.02;;;;;;;;;;5030419;28;20385;-62
2023/11/30 08:06:14;;;;;;;26.40;10.37;;;;;;;;;;5027202;28;20068;-62
2023/11/30 08:08:39;;;;;;;31.13;11.20;;;;;;;;;;5016824;28;20456;-62
2023/11/30 08:11:04;;;;;;;25.77;10.07;;;;;;;;;;5017726;28;20076;-64
2023/11/30 08:13:30;;;;;;;26.05;9.63;;;;;;;;;;5018655;28;20022;-61
2023/11/30 08:15:55;;;;;;;26.52;10.63;;;;;;;;;;5027248;28;20037;-62
2023/11/30 08:18:24;;;;;;;27.80;10.27;;;;;;;;;;5027169;28;20482;-63
2023/11/30 08:20:49;;;;;;;26.10;10.48;;;;;;;;;;5027553;28;20582;-61
2023/11/30 08:23:14;;;;;;;27.85;10.55;;;;;;;;;;5018001;28;20045;-60
2023/11/30 08:25:40;;;;;;;29.23;11.73;;;;;;;;;;5025090;28;20055;-63
2023/11/30 08:28:05;;;;;;;31.13;11.00;;;;;;;;;;5028691;28;20033;-63
2023/11/30 08:30:30;;;;;;;26.27;10.33;;;;;;;;;;5025009;28;20032;-63
2023/11/30 08:32:55;;;;;;;25.60;10.77;;;;;;;;;;5028387;28;20030;-62
2023/11/30 08:35:21;;;;;;;26.60;10.23;;;;;;;;;;5026816;28;20056;-63
2023/11/30 08:37:46;;;;;;;23.30;9.30;;;;;;;;;;5020928;28;20108;-62
2023/11/30 08:40:11;;;;;;;27.53;10.07;;;;;;;;;;5012915;28;20021;-61
2023/11/30 08:42:37;;;;;;;24.95;10.20;;;;;;;;;;5031510;28;20029;-63
2023/11/30 08:45:02;;;;;;;24.37;9.83;;;;;;;;;;5016173;28;20042;-62
2023/11/30 08:47:27;;;;;;;26.40;10.35;;;;;;;;;;5015744;28;20038;-62
2023/11/30 08:49:53;;;;;;;29.83;10.30;;;;;;;;;;5017958;28;20026;-62
2023/11/30 08:52:18;;;;;;;26.67;11.23;;;;;;;;;;5017903;28;20057;-61
2023/11/30 08:54:44;;;;;;;26.60;10.87;;;;;;;;;;5014118;28;20100;-64
2023/11/30 08:57:12;;;;;;;26.63;10.68;;;;;;;;;;5023270;28;20045;-63
2023/11/30 08:59:37;;;;;;;30.52;11.75;;;;;;;;;;5014158;28;20021;-63
2023/11/30 09:02:02;;;;;;;28.10;10.90;;;;;;;;;;5023959;28;20044;-63
2023/11/30 09:04:27;;;;;;;25.35;10.32;;;;;;;;;;5019140;28;20041;-61
2023/11/30 09:06:52;;;;;;;27.88;11.63;;;;;;;;;;5020763;28;20356;-64
2023/11/30 09:09:18;;;;;;;31.35;11.95;;;;;;;;;;5027448;28;20041;-63
2023/11/30 09:11:44;;;;;;;31.70;11.20;;;;;;;;;;5032331;28;20022;-62
2023/11/30 09:14:09;;;;;;;32.78;11.32;;;;;;;;;;5020553;28;20534;-62
2023/11/30 09:16:35;;;;;;;31.17;10.47;;;;;;;;;;5018884;28;20112;-63
2023/11/30 09:19:00;;;;;;;32.33;11.50;;;;;;;;;;5029447;28;20517;-62
2023/11/30 09:21:25;;;;;;;27.80;10.88;;;;;;;;;;5023926;28;20478;-62
2023/11/30 09:23:50;;;;;;;28.17;10.85;;;;;;;;;;5011958;28;20033;-62
2023/11/30 09:26:18;;;;;;;29.07;11.27;;;;;;;;;;5015819;28;20033;-62
2023/11/30 09:28:44;;;;;;;26.00;10.35;;;;;;;;;;5018901;28;20037;-62
2023/11/30 09:31:09;;;;;;;28.65;10.45;;;;;;;;;;5025244;28;20025;-63
2023/11/30 09:33:34;;;;;;;30.15;11.93;;;;;;;;;;5024546;28;20037;-63
2023/11/30 09:35:59;;;;;;;30.52;11.20;;;;;;;;;;5028719;28;20030;-63
2023/11/30 09:38:25;;;;;;;28.13;11.17;;;;;;;;;;5025233;28;20033;-63
2023/11/30 09:40:51;;;;;;;31.08;10.98;;;;;;;;;;5020047;28;20105;-63
2023/11/30 09:43:16;;;;;;;26.52;10.38;;;;;;;;;;5022995;28;20029;-64
2023/11/30 09:45:44;;;;;;;29.38;11.38;;;;;;;;;;5025105;28;20013;-62
2023/11/30 09:48:09;;;;;;;24.88;10.10;;;;;;;;;;5029567;28;20029;-63
2023/11/30 09:50:34;;;;;;;23.58;9.60;;;;;;;;;;5024402;28;20025;-63
2023/11/30 09:52:59;;;;;;;26.77;10.37;;;;;;;;;;5019546;28;20067;-64
2023/11/30 09:55:26;;;;;;;27.60;10.10;;;;;;;;;;5025991;28;20021;-61
2023/11/30 09:57:51;;;;;;;26.52;11.32;;;;;;;;;;5029290;28;20480;-62
2023/11/30 10:00:16;;;;;;;24.63;9.63;;;;;;;;;;5020452;28;20060;-63
2023/11/30 10:02:52;;;;;;;26.97;10.27;;;;;;;;;;5027713;28;20441;-63
2023/11/30 10:05:17;;;;;;;24.52;9.98;;;;;;;;;;5026462;28;20437;-63
2023/11/30 10:07:42;;;;;;;26.25;10.73;;;;;;;;;;5024234;28;20080;-63
2023/11/30 10:10:08;;;;;;;27.60;10.73;;;;;;;;;;5023521;28;20418;-63
2023/11/30 10:12:34;;;;;;;26.25;11.38;;;;;;;;;;5022774;28;20018;-63
2023/11/30 10:15:00;;;;;;;30.45;12.75;;;;;;;;;;5020620;28;20040;-63
2023/11/30 10:17:26;;;;;;;25.80;12.45;;;;;;;;;;5026435;28;20029;-64
2023/11/30 10:19:52;;;;;;;28.52;13.07;;;;;;;;;;5029366;28;20488;-63
2023/11/30 10:22:19;;;;;;;30.80;13.25;;;;;;;;;;5022831;28;20477;-63
2023/11/30 10:24:44;;;;;;;29.40;12.23;;;;;;;;;;5021166;28;20022;-63
2023/11/30 10:27:10;;;;;;;33.50;13.70;;;;;;;;;;5029644;28;20628;-63
2023/11/30 10:29:37;;;;;;;31.15;12.73;;;;;;;;;;5021640;28;20032;-61
2023/11/30 10:32:05;;;;;;;35.95;13.75;;;;;;;;;;5022393;28;20346;-64
2023/11/30 10:34:32;;;;;;;34.25;14.25;;;;;;;;;;5026523;28;20057;-63
2023/11/30 10:36:59;;;;;;;34.85;14.05;;;;;;;;;;5021067;28;20382;-64
2023/11/30 10:39:25;;;;;;;38.78;14.35;;;;;;;;;;5016865;28;20021;-64
2023/11/30 10:41:55;;;;;;;31.90;13.98;;;;;;;;;;5023003;28;20025;-64
2023/11/30 10:44:20;;;;;;;34.38;14.40;;;;;;;;;;5026075;28;20466;-65
2023/11/30 10:46:46;;;;;;;32.50;13.85;;;;;;;;;;5020081;28;20482;-62
2023/11/30 10:49:11;;;;;;;27.23;12.13;;;;;;;;;;5014358;28;20405;-63
2023/11/30 10:51:37;;;;;;;33.33;12.95;;;;;;;;;;5029201;28;20014;-64
2023/11/30 10:54:21;;;;;;;32.03;13.57;;;;;;;;;;5020856;28;20045;-63
2023/11/30 10:56:46;;;;;;;32.58;13.13;;;;;;;;;;5016757;28;20029;-63
2023/11/30 10:59:12;;;;;;;32.55;13.52;;;;;;;;;;5019788;28;20390;-64
2023/11/30 11:01:37;;;;;;;35.75;14.63;;;;;;;;;;5025061;28;20022;-64
2023/11/30 11:04:05;;;;;;;36.50;14.60;;;;;;;;;;5020381;28;20557;-63
2023/11/30 11:06:32;;;;;;;36.15;14.65;;;;;;;;;;5023675;28;20025;-63
2023/11/30 11:09:02;;;;;;;34.65;14.45;;;;;;;;;;5024052;28;20036;-63
2023/11/30 11:11:29;;;;;;;34.05;14.63;;;;;;;;;;5025777;28;20037;-63
2023/11/30 11:13:54;;;;;;;30.52;13.13;;;;;;;;;;5020850;28;20093;-64
2023/11/30 11:16:20;;;;;;;31.73;13.00;;;;;;;;;;5026369;28;20437;-63
2023/11/30 11:18:45;;;;;;;29.25;12.57;;;;;;;;;;5019872;28;20040;-63
2023/11/30 11:21:26;;;;;;;29.83;11.93;;;;;;;;;;5016999;28;20568;-63
2023/11/30 11:23:51;;;;;;;30.25;12.48;;;;;;;;;;5018099;28;20491;-63
2023/11/30 11:26:16;;;;;;;28.35;12.02;;;;;;;;;;5010730;28;20026;-63
2023/11/30 11:28:41;;;;;;;29.67;12.20;;;;;;;;;;5020350;28;20408;-63
2023/11/30 11:31:07;;;;;;;29.63;12.75;;;;;;;;;;5017237;28;20033;-63
2023/11/30 11:33:32;;;;;;;27.80;11.15;;;;;;;;;;5020055;28;20060;-63
2023/11/30 11:35:57;;;;;;;26.45;11.60;;;;;;;;;;5011788;28;20662;-63
2023/11/30 11:38:22;;;;;;;28.47;12.20;;;;;;;;;;5024872;28;20071;-63
2023/11/30 11:40:47;;;;;;;28.58;12.18;;;;;;;;;;5032038;28;20017;-64
2023/11/30 11:43:13;;;;;;;29.83;12.27;;;;;;;;;;5017853;28;20021;-62
2023/11/30 11:45:39;;;;;;;25.80;11.37;;;;;;;;;;5022207;28;20053;-62
2023/11/30 11:48:08;;;;;;;29.50;12.05;;;;;;;;;;5025175;28;20037;-62
2023/11/30 11:50:33;;;;;;;28.13;11.82;;;;;;;;;;5021150;28;20036;-62
2023/11/30 11:53:03;;;;;;;26.00;11.15;;;;;;;;;;5021254;28;20038;-62
2023/11/30 11:55:28;;;;;;;23.83;9.75;;;;;;;;;;5013534;28;20029;-64
2023/11/30 11:57:56;;;;;;;21.95;10.00;;;;;;;;;;5016435;28;20032;-64
2023/11/30 12:00:22;;;;;;;23.23;9.35;;;;;;;;;;5031045;28;20029;-63
2023/11/30 12:02:48;;;;;;;22.45;10.23;;;;;;;;;;5027117;28;20017;-62
2023/11/30 12:05:16;;;;;;;20.90;9.48;;;;;;;;;;5023298;28;20075;-63
2023/11/30 12:07:57;;;;;;;23.52;9.65;;;;;;;;;;5023435;28;20084;-63
2023/11/30 12:10:27;;;;;;;23.63;10.00;;;;;;;;;;5026241;28;20021;-63
2023/11/30 12:12:53;;;;;;;23.15;10.10;;;;;;;;;;5019963;28;20026;-63
2023/11/30 12:15:18;;;;;;;21.05;9.20;;;;;;;;;;5015461;28;20466;-63
2023/11/30 12:17:43;;;;;;;22.23;9.80;;;;;;;;;;5030447;28;20037;-63
2023/11/30 12:20:08;;;;;;;21.70;10.20;;;;;;;;;;5016921;28;20022;-62
2023/11/30 12:22:33;;;;;;;21.33;9.27;;;;;;;;;;5023749;28;20094;-62
2023/11/30 12:24:58;;;;;;;24.60;10.73;;;;;;;;;;5029782;28;20026;-62
2023/11/30 12:27:24;;;;;;;25.13;11.50;;;;;;;;;;5023207;28;20037;-62
2023/11/30 12:29:49;;;;;;;24.35;11.65;;;;;;;;;;5023269;28;20056;-63
2023/11/30 12:32:14;;;;;;;24.27;12.07;;;;;;;;;;5017886;28;20041;-62
2023/11/30 12:34:39;;;;;;;27.40;12.18;;;;;;;;;;5029595;28;20061;-62
2023/11/30 12:37:04;;;;;;;23.73;11.20;;;;;;;;;;5022405;28;20037;-63
2023/11/30 12:39:30;;;;;;;23.02;10.70;;;;;;;;;;5028874;28;20037;-63
2023/11/30 12:41:55;;;;;;;24.63;11.18;;;;;;;;;;5020651;28;20030;-62
2023/11/30 12:44:20;;;;;;;23.83;10.75;;;;;;;;;;5011902;28;20022;-62
2023/11/30 12:46:45;;;;;;;25.27;12.50;;;;;;;;;;5023801;28;20030;-61
2023/11/30 12:49:10;;;;;;;25.02;12.30;;;;;;;;;;5017484;28;20025;-62
2023/11/30 12:51:35;;;;;;;25.07;12.20;;;;;;;;;;5024810;28;20032;-62
2023/11/30 12:54:02;;;;;;;25.27;13.13;;;;;;;;;;5028016;28;20100;-62
2023/11/30 12:56:27;;;;;;;25.70;11.77;;;;;;;;;;5030786;28;20104;-62
2023/11/30 12:58:52;;;;;;;27.17;12.55;;;;;;;;;;5026727;28;20041;-62
2023/11/30 13:01:17;;;;;;;23.85;11.52;;;;;;;;;;5026598;28;20028;-62
2023/11/30 13:03:42;;;;;;;23.27;11.73;;;;;;;;;;5023472;28;20569;-62
2023/11/30 13:06:08;;;;;;;25.40;12.38;;;;;;;;;;5029692;28;20026;-62
2023/11/30 13:08:33;;;;;;;26.50;12.82;;;;;;;;;;5021636;28;20030;-61
2023/11/30 13:10:58;;;;;;;28.67;12.70;;;;;;;;;;5019174;28;20071;-62
2023/11/30 13:13:23;;;;;;;25.70;11.67;;;;;;;;;;5013981;28;20036;-62
2023/11/30 13:15:48;;;;;;;26.52;12.75;;;;;;;;;;5023534;28;20481;-62
2023/11/30 13:18:14;;;;;;;27.60;12.52;;;;;;;;;;5027093;28;20037;-62
2023/11/30 13:20:40;;;;;;;25.60;12.75;;;;;;;;;;5023684;28;20049;-63
2023/11/30 13:23:07;;;;;;;25.05;13.15;;;;;;;;;;5023421;28;20088;-63
2023/11/30 13:25:32;;;;;;;26.65;12.32;;;;;;;;;;5014680;28;20533;-63
2023/11/30 13:27:58;;;;;;;26.85;13.43;;;;;;;;;;5019851;28;20106;-63
2023/11/30 13:30:24;;;;;;;28.60;12.93;;;;;;;;;;5012410;28;20097;-64
2023/11/30 13:32:49;;;;;;;26.73;12.60;;;;;;;;;;5017723;28;20478;-63
2023/11/30 13:35:14;;;;;;;24.60;12.57;;;;;;;;;;5021422;28;20022;-62
2023/11/30 13:37:39;;;;;;;26.37;13.00;;;;;;;;;;5028193;28;20021;-62
2023/11/30 13:40:07;;;;;;;29.07;13.23;;;;;;;;;;5017851;28;20060;-62
2023/11/30 13:42:33;;;;;;;26.95;12.88;;;;;;;;;;5024755;28;20010;-62
2023/11/30 13:44:58;;;;;;;28.43;12.77;;;;;;;;;;5021481;28;20405;-63
2023/11/30 13:47:23;;;;;;;28.63;13.10;;;;;;;;;;5024884;28;20052;-62
2023/11/30 13:49:48;;;;;;;26.15;12.68;;;;;;;;;;5016813;28;20496;-62
2023/11/30 13:52:13;;;;;;;24.03;11.20;;;;;;;;;;5015001;28;20037;-62
2023/11/30 13:54:38;;;;;;;25.53;12.27;;;;;;;;;;5014216;28;20426;-62
2023/11/30 13:57:06;;;;;;;24.50;11.38;;;;;;;;;;5021723;28;20037;-61
2023/11/30 13:59:31;;;;;;;24.15;11.10;;;;;;;;;;5029306;28;20029;-62
2023/11/30 14:01:56;;;;;;;24.38;10.50;;;;;;;;;;5018730;28;20071;-62
2023/11/30 14:04:22;;;;;;;25.35;11.25;;;;;;;;;;5025127;28;20508;-62
2023/11/30 14:06:49;;;;;;;24.17;11.85;;;;;;;;;;5029190;28;20053;-62
2023/11/30 14:09:15;;;;;;;24.17;11.45;;;;;;;;;;5030466;28;20052;-62
2023/11/30 14:11:40;;;;;;;25.27;12.30;;;;;;;;;;5020630;28;20049;-62
2023/11/30 14:14:06;;;;;;;27.83;12.80;;;;;;;;;;5026223;28;20571;-63
2023/11/30 14:16:31;;;;;;;27.33;11.87;;;;;;;;;;5022359;28;20040;-63